Maran Canopus — SXUQ — position and weather

sailwx.info

Track history (hours):
 
Tides and Currents Weather Stations Pressure Air Temp Water Temp Dewpoint Dewpoint Depression Visibility Wind Speed Wind Dir Waves Ship Positions

Maran Canopus

Last reported at 2017-Apr-05 10:48 UTC. Time now 2017-Apr-23 17:40 UTC.
Position N 17°36' W 060°59'.
Warning: this ship's position is 18 days out of date.

Length 333 m; draft 21.5 m.

Type: Tanker. MMSI: 240677000.

Date/timePositionNaut miles runAvg speedWind from/ knotsBaromVisibWave heightAir tempDewpointWater temp
2017-Apr-05 10:48N 17°36' W 060°59'412.3
2017-Apr-05 10:28N 17°39' W 061°02'612.5
2017-Apr-05 10:00N 17°43' W 061°07'612.4
2017-Apr-05 09:29N 17°47' W 061°12'612.4
2017-Apr-05 09:00N 17°50' W 061°17'612.6
2017-Apr-05 08:30N 17°54' W 061°22'612.7
2017-Apr-05 08:00N 17°58' W 061°27'4412.3
2017-Apr-05 04:28N 18°26' W 062°03'612.3
2017-Apr-05 04:00N 18°29' W 062°08'712.1
2017-Apr-05 03:28N 18°33' W 062°13'612.0
2017-Apr-05 02:57N 18°37' W 062°18'512.1
2017-Apr-05 02:30N 18°40' W 062°23'612.3
2017-Apr-05 02:00N 18°44' W 062°28'1812.3
2017-Apr-05 00:30N 18°56' W 062°43'612.4
2017-Apr-05 00:00N 18°57' W 062°49'  
2017-Mar-28 16:33N 28°28' W 094°30'  
Track history (hours):
 
Tides and Currents Weather Stations Pressure Air Temp Water Temp Dewpoint Dewpoint Depression Visibility Wind Speed Wind Dir Waves Ship Positions

Maran Canopus

Last reported at 2017-Apr-05 10:48 UTC. Time now 2017-Apr-23 17:40 UTC.
Position N 17°36' W 060°59'.
Warning: this ship's position is 18 days out of date.

Length 333 m; draft 21.5 m.

Type: Tanker. MMSI: 240677000.

Date/timePositionNaut miles runAvg speedWind from/ knotsBaromVisibWave heightAir tempDewpointWater temp
2017-Apr-05 10:48N 17°36' W 060°59'412.3
2017-Apr-05 10:28N 17°39' W 061°02'612.5
2017-Apr-05 10:00N 17°43' W 061°07'612.4
2017-Apr-05 09:29N 17°47' W 061°12'612.4
2017-Apr-05 09:00N 17°50' W 061°17'612.6
2017-Apr-05 08:30N 17°54' W 061°22'612.7
2017-Apr-05 08:00N 17°58' W 061°27'4412.3
2017-Apr-05 04:28N 18°26' W 062°03'612.3
2017-Apr-05 04:00N 18°29' W 062°08'712.1
2017-Apr-05 03:28N 18°33' W 062°13'612.0
2017-Apr-05 02:57N 18°37' W 062°18'512.1
2017-Apr-05 02:30N 18°40' W 062°23'612.3
2017-Apr-05 02:00N 18°44' W 062°28'1812.3
2017-Apr-05 00:30N 18°56' W 062°43'612.4
2017-Apr-05 00:00N 18°57' W 062°49'  
2017-Mar-28 16:33N 28°28' W 094°30'  

Dump ship's entire track history